Time;durP1;ratioP1;P1;durP2;ratioP2;P2;SDS_P1;SDS_P2;PMS_P1;PMS_P2;Temp;Humidity;BMP_temperature;BMP_pressure;BME280_temperature;BME280_humidity;BME280_pressure;Samples;Min_cycle;Max_cycle;Signal;HPM_P1;HPM_P2
2023/07/01 00:01:39;;;;;;;7.68;1.70;;;;;;;;;;5088324;27;98300;-77
2023/07/01 00:04:06;;;;;;;4.60;2.45;;;;;;;;;;5087662;27;99005;-77
2023/07/01 00:06:33;;;;;;;8.90;2.97;;;;;;;;;;5091219;27;100224;-76
2023/07/01 00:08:59;;;;;;;4.28;1.83;;;;;;;;;;5088872;27;99104;-76
2023/07/01 00:11:26;;;;;;;5.63;2.20;;;;;;;;;;5088484;27;99721;-76
2023/07/01 00:13:53;;;;;;;1.98;1.70;;;;;;;;;;5087644;27;98422;-78
2023/07/01 00:16:19;;;;;;;9.55;2.05;;;;;;;;;;5086620;27;98470;-77
2023/07/01 00:18:47;;;;;;;3.25;2.03;;;;;;;;;;5087934;27;100225;-77
2023/07/01 00:21:13;;;;;;;3.80;1.92;;;;;;;;;;5068610;27;98324;-77
2023/07/01 00:23:40;;;;;;;2.63;2.22;;;;;;;;;;5088445;27;99688;-77
2023/07/01 00:26:06;;;;;;;4.13;2.45;;;;;;;;;;5087083;27;99073;-77
2023/07/01 00:28:33;;;;;;;4.38;1.65;;;;;;;;;;5090583;27;98543;-77
2023/07/01 00:30:59;;;;;;;3.63;2.28;;;;;;;;;;5069138;27;101748;-77
2023/07/01 00:33:26;;;;;;;6.15;2.20;;;;;;;;;;5088780;27;98242;-78
2023/07/01 00:35:53;;;;;;;4.00;1.98;;;;;;;;;;5087433;27;98811;-78
2023/07/01 00:38:20;;;;;;;5.72;2.35;;;;;;;;;;5087739;27;99263;-77
2023/07/01 00:40:48;;;;;;;4.55;2.15;;;;;;;;;;5086714;27;98403;-77
2023/07/01 00:43:15;;;;;;;8.40;2.35;;;;;;;;;;5088079;27;98736;-77
2023/07/01 00:45:41;;;;;;;5.43;3.00;;;;;;;;;;5087904;27;98861;-77
2023/07/01 00:48:16;;;;;;;7.50;2.10;;;;;;;;;;5087206;27;98522;-78
2023/07/01 00:50:42;;;;;;;3.35;1.80;;;;;;;;;;5091391;27;98537;-78
2023/07/01 00:53:09;;;;;;;9.27;2.17;;;;;;;;;;5087542;27;98282;-78
2023/07/01 00:55:35;;;;;;;3.90;2.25;;;;;;;;;;5087586;27;99323;-78
2023/07/01 00:58:02;;;;;;;7.13;2.15;;;;;;;;;;5086635;27;99139;-78
2023/07/01 01:00:28;;;;;;;3.33;2.50;;;;;;;;;;5087965;27;98177;-78
2023/07/01 01:03:08;;;;;;;6.97;2.35;;;;;;;;;;5067518;27;100605;-78
2023/07/01 01:05:39;;;;;;;9.43;2.83;;;;;;;;;;5087147;27;98664;-78
2023/07/01 01:08:08;;;;;;;3.33;2.10;;;;;;;;;;5067500;27;98252;-78
2023/07/01 01:10:37;;;;;;;13.85;2.25;;;;;;;;;;5085798;27;98684;-77
2023/07/01 01:13:07;;;;;;;4.55;2.33;;;;;;;;;;5091001;27;98915;-77
2023/07/01 01:15:35;;;;;;;4.68;2.10;;;;;;;;;;5072479;27;98640;-77
2023/07/01 01:18:04;;;;;;;4.40;2.53;;;;;;;;;;5089942;27;98928;-76
2023/07/01 01:20:33;;;;;;;3.97;2.25;;;;;;;;;;5091109;27;98082;-77
2023/07/01 01:23:14;;;;;;;2.60;2.10;;;;;;;;;;5090187;27;99760;-77
2023/07/01 01:25:43;;;;;;;3.65;2.35;;;;;;;;;;5072150;27;99348;-79
2023/07/01 01:28:10;;;;;;;4.35;2.40;;;;;;;;;;5090977;27;99002;-78
2023/07/01 01:30:37;;;;;;;5.07;2.20;;;;;;;;;;5089572;27;98191;-77
2023/07/01 01:33:06;;;;;;;2.45;2.25;;;;;;;;;;5089542;27;98884;-78
2023/07/01 01:35:32;;;;;;;9.15;1.88;;;;;;;;;;5094606;27;98209;-78
2023/07/01 01:38:10;;;;;;;4.35;2.08;;;;;;;;;;5088636;27;99777;-78
2023/07/01 01:40:36;;;;;;;6.22;2.10;;;;;;;;;;5090966;27;98247;-79
2023/07/01 01:43:12;;;;;;;5.03;3.10;;;;;;;;;;5071971;27;99456;-78
2023/07/01 01:45:39;;;;;;;5.50;2.25;;;;;;;;;;5071366;27;98957;-78
2023/07/01 01:48:06;;;;;;;5.10;2.13;;;;;;;;;;5089664;27;98362;-78
2023/07/01 01:50:34;;;;;;;9.20;2.25;;;;;;;;;;5072131;27;99651;-78
2023/07/01 01:53:03;;;;;;;3.10;2.05;;;;;;;;;;5090150;27;98697;-78
2023/07/01 01:55:30;;;;;;;5.03;2.50;;;;;;;;;;5070958;27;98328;-78
2023/07/01 01:57:58;;;;;;;2.50;1.98;;;;;;;;;;5074752;27;100688;-78
2023/07/01 02:00:25;;;;;;;6.30;2.67;;;;;;;;;;5077651;27;98063;-78
2023/07/01 02:02:52;;;;;;;4.32;1.95;;;;;;;;;;5097423;27;98614;-78
2023/07/01 02:05:18;;;;;;;3.42;2.20;;;;;;;;;;5103353;27;98074;-78
2023/07/01 02:07:45;;;;;;;7.00;2.45;;;;;;;;;;5107620;27;98692;-77
2023/07/01 02:10:13;;;;;;;3.78;1.95;;;;;;;;;;5100210;27;98455;-78
2023/07/01 02:12:39;;;;;;;4.40;2.00;;;;;;;;;;5070732;27;100189;-78
2023/07/01 02:15:06;;;;;;;22.92;4.28;;;;;;;;;;5090096;27;98221;-78
2023/07/01 02:17:33;;;;;;;6.80;2.80;;;;;;;;;;5093340;27;98105;-77
2023/07/01 02:19:59;;;;;;;4.65;2.30;;;;;;;;;;5088301;27;98244;-78
2023/07/01 02:22:26;;;;;;;3.75;2.15;;;;;;;;;;5090238;27;98503;-78
2023/07/01 02:24:52;;;;;;;3.55;2.85;;;;;;;;;;5088663;27;98787;-78
2023/07/01 02:27:19;;;;;;;6.45;2.83;;;;;;;;;;5088113;27;98296;-77
2023/07/01 02:29:47;;;;;;;4.90;2.40;;;;;;;;;;5071275;27;101238;-77
2023/07/01 02:32:14;;;;;;;5.50;2.00;;;;;;;;;;5070933;27;98680;-77
2023/07/01 02:34:40;;;;;;;4.15;2.47;;;;;;;;;;5089030;27;98513;-78
2023/07/01 02:37:06;;;;;;;5.22;2.53;;;;;;;;;;5071117;27;101331;-78
2023/07/01 02:39:33;;;;;;;7.40;2.03;;;;;;;;;;5092950;27;98710;-78
2023/07/01 02:42:00;;;;;;;7.47;2.60;;;;;;;;;;5088792;27;99634;-79
2023/07/01 02:44:27;;;;;;;5.22;2.33;;;;;;;;;;5070121;27;101458;-77
2023/07/01 02:46:53;;;;;;;6.78;2.72;;;;;;;;;;5089582;27;98096;-79
2023/07/01 02:49:20;;;;;;;4.28;3.20;;;;;;;;;;5070058;27;99411;-78
2023/07/01 02:51:47;;;;;;;6.57;1.95;;;;;;;;;;5088299;27;98856;-79
2023/07/01 02:54:14;;;;;;;4.60;2.45;;;;;;;;;;5088486;27;98421;-76
2023/07/01 02:56:41;;;;;;;2.45;2.25;;;;;;;;;;5070944;27;101261;-78
2023/07/01 02:59:08;;;;;;;8.60;2.67;;;;;;;;;;5070212;27;101540;-77
2023/07/01 03:01:34;;;;;;;3.38;2.28;;;;;;;;;;5092439;27;98202;-78
2023/07/01 03:04:05;;;;;;;6.32;2.70;;;;;;;;;;5070316;27;99374;-78
2023/07/01 03:06:46;;;;;;;8.13;2.55;;;;;;;;;;5089268;27;98195;-78
2023/07/01 03:09:14;;;;;;;3.30;2.35;;;;;;;;;;5086701;27;99356;-78
2023/07/01 03:11:41;;;;;;;7.78;1.83;;;;;;;;;;5089438;27;98822;-78
2023/07/01 03:14:07;;;;;;;8.82;2.33;;;;;;;;;;5088981;27;98429;-79
2023/07/01 03:16:34;;;;;;;7.55;3.08;;;;;;;;;;5088786;27;98172;-78
2023/07/01 03:19:05;;;;;;;3.95;2.15;;;;;;;;;;5088015;27;99515;-79
2023/07/01 03:21:33;;;;;;;5.35;2.20;;;;;;;;;;5089011;27;98211;-78
2023/07/01 03:24:00;;;;;;;2.40;2.20;;;;;;;;;;5072605;27;99152;-78
2023/07/01 03:26:27;;;;;;;4.95;2.17;;;;;;;;;;5088591;27;98272;-78
2023/07/01 03:28:54;;;;;;;2.35;2.15;;;;;;;;;;5088263;27;98149;-78
2023/07/01 03:31:22;;;;;;;3.88;2.38;;;;;;;;;;5054400;27;100041;-78
2023/07/01 03:33:51;;;;;;;4.40;2.60;;;;;;;;;;5075037;27;98404;-78
2023/07/01 03:36:17;;;;;;;6.72;2.20;;;;;;;;;;5095255;27;98202;-78
2023/07/01 03:38:44;;;;;;;3.83;2.47;;;;;;;;;;5091201;27;99234;-78
2023/07/01 03:41:11;;;;;;;7.47;2.50;;;;;;;;;;5089683;27;98256;-78
2023/07/01 03:43:38;;;;;;;5.70;1.92;;;;;;;;;;5076445;27;98493;-78
2023/07/01 03:46:06;;;;;;;2.53;2.33;;;;;;;;;;5073416;27;99895;-78
2023/07/01 03:48:34;;;;;;;2.65;2.20;;;;;;;;;;5085294;27;98752;-78
2023/07/01 03:51:01;;;;;;;5.75;2.50;;;;;;;;;;5088620;27;100398;-78
2023/07/01 03:53:29;;;;;;;3.75;2.88;;;;;;;;;;5088446;27;98268;-78
2023/07/01 03:55:56;;;;;;;4.00;2.60;;;;;;;;;;5088426;27;99561;-77
2023/07/01 03:58:24;;;;;;;3.80;2.10;;;;;;;;;;5087527;27;100188;-78
2023/07/01 04:00:54;;;;;;;5.20;2.47;;;;;;;;;;5069635;27;98268;-77
2023/07/01 04:03:24;;;;;;;3.30;2.92;;;;;;;;;;5087867;27;99354;-78
2023/07/01 04:05:51;;;;;;;2.97;2.40;;;;;;;;;;5086961;27;98992;-78
2023/07/01 04:08:20;;;;;;;3.90;2.35;;;;;;;;;;5091555;27;98078;-78
2023/07/01 04:10:47;;;;;;;3.67;2.50;;;;;;;;;;5087359;27;99895;-78
2023/07/01 04:13:14;;;;;;;6.35;2.78;;;;;;;;;;5087136;27;98249;-77
2023/07/01 04:15:43;;;;;;;4.65;2.40;;;;;;;;;;5088625;27;99737;-78
2023/07/01 04:18:10;;;;;;;5.03;2.72;;;;;;;;;;5087982;27;100160;-78
2023/07/01 04:20:36;;;;;;;3.78;2.58;;;;;;;;;;5087329;27;98376;-77
2023/07/01 04:23:03;;;;;;;6.10;2.55;;;;;;;;;;5087660;27;100313;-77
2023/07/01 04:25:30;;;;;;;4.07;2.50;;;;;;;;;;5086849;27;98808;-78
2023/07/01 04:27:57;;;;;;;3.38;2.53;;;;;;;;;;5090041;27;98860;-77
2023/07/01 04:30:29;;;;;;;4.15;2.42;;;;;;;;;;5090008;27;99136;-77
2023/07/01 04:33:03;;;;;;;3.33;2.80;;;;;;;;;;5090754;27;98120;-78
2023/07/01 04:35:34;;;;;;;2.40;2.03;;;;;;;;;;5088757;27;99831;-77
2023/07/01 04:38:01;;;;;;;3.35;2.20;;;;;;;;;;5090286;27;98933;-77
2023/07/01 04:40:27;;;;;;;4.55;2.10;;;;;;;;;;5087396;27;98377;-78
2023/07/01 04:42:53;;;;;;;2.95;2.65;;;;;;;;;;5087325;27;98965;-78
2023/07/01 04:45:23;;;;;;;4.20;2.55;;;;;;;;;;5070910;27;98947;-78
2023/07/01 04:47:49;;;;;;;7.13;2.40;;;;;;;;;;5087875;27;98509;-77
2023/07/01 04:50:16;;;;;;;3.08;2.80;;;;;;;;;;5094640;27;99244;-78
2023/07/01 04:52:43;;;;;;;3.03;2.47;;;;;;;;;;5090712;27;98252;-78
2023/07/01 04:55:12;;;;;;;4.60;2.83;;;;;;;;;;5090499;27;98506;-79
2023/07/01 04:57:38;;;;;;;5.55;3.25;;;;;;;;;;5091325;27;100458;-78
2023/07/01 05:00:09;;;;;;;3.50;3.20;;;;;;;;;;5090946;27;98640;-78
2023/07/01 05:02:36;;;;;;;3.35;2.90;;;;;;;;;;5091562;27;100021;-78
2023/07/01 05:05:03;;;;;;;3.20;2.90;;;;;;;;;;5092610;27;99270;-77
2023/07/01 05:07:35;;;;;;;10.63;3.08;;;;;;;;;;5102901;27;97946;-77
2023/07/01 05:10:01;;;;;;;;;;;;;;;;;;5105682;27;100060;-77
2023/07/01 05:12:28;;;;;;;3.53;3.17;;;;;;;;;;5104398;27;127132;-78
2023/07/01 05:14:55;;;;;;;3.67;3.30;;;;;;;;;;5104245;27;98735;-77
2023/07/01 05:17:21;;;;;;;4.43;3.05;;;;;;;;;;5109937;27;98797;-78
2023/07/01 05:19:49;;;;;;;3.67;3.00;;;;;;;;;;5099368;27;98071;-77
2023/07/01 05:22:15;;;;;;;4.90;3.20;;;;;;;;;;5090361;27;99843;-78
2023/07/01 05:24:41;;;;;;;3.53;3.33;;;;;;;;;;5090926;27;100324;-77
2023/07/01 05:27:08;;;;;;;5.28;3.60;;;;;;;;;;5090713;27;98561;-78
2023/07/01 05:29:34;;;;;;;3.33;3.10;;;;;;;;;;5090656;27;99840;-77
2023/07/01 05:32:02;;;;;;;4.22;3.83;;;;;;;;;;5090458;27;99932;-77
2023/07/01 05:34:29;;;;;;;5.03;3.40;;;;;;;;;;5093197;27;98360;-78
2023/07/01 05:36:56;;;;;;;4.15;3.60;;;;;;;;;;5089035;27;100036;-78
2023/07/01 05:39:23;;;;;;;9.10;3.60;;;;;;;;;;5089922;27;98283;-77
2023/07/01 05:41:49;;;;;;;3.95;3.65;;;;;;;;;;5090579;27;99484;-77
2023/07/01 05:44:16;;;;;;;6.97;4.05;;;;;;;;;;5089766;27;100284;-77
2023/07/01 05:46:42;;;;;;;4.00;3.58;;;;;;;;;;5090060;27;98406;-77
2023/07/01 05:49:09;;;;;;;4.03;3.70;;;;;;;;;;5090147;27;99260;-78
2023/07/01 05:51:37;;;;;;;4.97;4.10;;;;;;;;;;5071573;27;99891;-79
2023/07/01 05:54:05;;;;;;;3.53;3.33;;;;;;;;;;5088133;27;98484;-79
2023/07/01 05:56:31;;;;;;;4.35;3.90;;;;;;;;;;5092945;27;98374;-78
2023/07/01 05:58:58;;;;;;;4.00;3.70;;;;;;;;;;5089402;27;98224;-78
2023/07/01 06:01:26;;;;;;;4.43;4.03;;;;;;;;;;5070040;27;98843;-78
2023/07/01 06:03:52;;;;;;;4.53;3.92;;;;;;;;;;5092623;27;100116;-79
2023/07/01 06:06:21;;;;;;;4.82;4.20;;;;;;;;;;5077488;27;98294;-79
2023/07/01 06:08:48;;;;;;;4.65;4.25;;;;;;;;;;5105689;27;98056;-79
2023/07/01 06:11:16;;;;;;;4.45;4.15;;;;;;;;;;5104161;27;98916;-80
2023/07/01 06:13:46;;;;;;;4.00;3.70;;;;;;;;;;5102835;27;98292;-78
2023/07/01 06:16:14;;;;;;;5.07;4.40;;;;;;;;;;5099059;27;98348;-79
2023/07/01 06:18:41;;;;;;;4.68;4.28;;;;;;;;;;5103431;27;98295;-78
2023/07/01 06:21:08;;;;;;;4.28;4.05;;;;;;;;;;5093726;27;99527;-78
2023/07/01 06:23:38;;;;;;;6.53;4.45;;;;;;;;;;5089834;27;98082;-78
2023/07/01 06:26:05;;;;;;;5.68;3.97;;;;;;;;;;5088977;27;98274;-79
2023/07/01 06:28:32;;;;;;;4.57;4.30;;;;;;;;;;5090375;27;98660;-79
2023/07/01 06:30:58;;;;;;;4.50;4.20;;;;;;;;;;5089786;27;99435;-77
2023/07/01 06:33:36;;;;;;;5.10;4.60;;;;;;;;;;5090070;27;98189;-77
2023/07/01 06:36:05;;;;;;;4.53;4.32;;;;;;;;;;5089411;27;99015;-77
2023/07/01 06:38:33;;;;;;;4.90;4.50;;;;;;;;;;5093632;27;100062;-78
2023/07/01 06:40:59;;;;;;;5.57;5.03;;;;;;;;;;5089297;27;99330;-78
2023/07/01 06:43:26;;;;;;;5.03;4.65;;;;;;;;;;5089705;27;99944;-77
2023/07/01 06:45:55;;;;;;;4.47;4.18;;;;;;;;;;5088974;27;99120;-79
2023/07/01 06:48:22;;;;;;;5.03;4.63;;;;;;;;;;5088760;27;99513;-78
2023/07/01 06:50:48;;;;;;;4.85;4.40;;;;;;;;;;5088541;27;100130;-78
2023/07/01 06:53:15;;;;;;;4.03;3.80;;;;;;;;;;5089295;27;98370;-78
2023/07/01 06:55:41;;;;;;;5.70;5.20;;;;;;;;;;5089239;27;98470;-78
2023/07/01 06:58:08;;;;;;;6.40;4.20;;;;;;;;;;5089336;27;99166;-78
2023/07/01 07:00:34;;;;;;;4.22;3.92;;;;;;;;;;5092298;27;98558;-78
2023/07/01 07:03:03;;;;;;;4.72;4.43;;;;;;;;;;5089052;27;99936;-78
2023/07/01 07:05:30;;;;;;;4.80;4.50;;;;;;;;;;5088593;27;99321;-78
2023/07/01 07:07:57;;;;;;;4.55;4.35;;;;;;;;;;5070490;27;99584;-78
2023/07/01 07:10:23;;;;;;;5.07;4.68;;;;;;;;;;5086988;27;100018;-77
2023/07/01 07:12:50;;;;;;;4.80;4.40;;;;;;;;;;5088452;27;98573;-77
2023/07/01 07:15:17;;;;;;;5.20;4.85;;;;;;;;;;5087674;27;99742;-78
2023/07/01 07:17:45;;;;;;;5.13;4.65;;;;;;;;;;5087779;27;98830;-76
2023/07/01 07:20:13;;;;;;;5.00;4.70;;;;;;;;;;5088712;27;98318;-77
2023/07/01 07:22:39;;;;;;;5.75;5.35;;;;;;;;;;5091581;27;100027;-77
2023/07/01 07:25:06;;;;;;;6.97;5.80;;;;;;;;;;5088757;27;99121;-78
2023/07/01 07:27:32;;;;;;;5.50;5.15;;;;;;;;;;5088258;27;98741;-78
2023/07/01 07:29:59;;;;;;;6.25;5.65;;;;;;;;;;5087875;27;100214;-77
2023/07/01 07:32:25;;;;;;;6.05;5.65;;;;;;;;;;5089089;27;98225;-78
2023/07/01 07:34:52;;;;;;;7.55;5.90;;;;;;;;;;5089001;27;99386;-77
2023/07/01 07:37:18;;;;;;;6.18;5.68;;;;;;;;;;5087029;27;99212;-77
2023/07/01 07:39:45;;;;;;;6.72;6.20;;;;;;;;;;5088027;27;98762;-77
2023/07/01 07:42:12;;;;;;;6.85;6.25;;;;;;;;;;5088687;27;99891;-77
2023/07/01 07:44:41;;;;;;;6.80;6.32;;;;;;;;;;5090359;27;98985;-77
2023/07/01 07:47:08;;;;;;;7.05;6.55;;;;;;;;;;5088397;27;99572;-77
2023/07/01 07:49:34;;;;;;;7.03;6.40;;;;;;;;;;5087459;27;98951;-77
2023/07/01 07:52:01;;;;;;;7.03;6.50;;;;;;;;;;5088088;27;98875;-78
2023/07/01 07:54:29;;;;;;;6.95;6.45;;;;;;;;;;5088659;27;99339;-78
2023/07/01 07:56:58;;;;;;;6.55;5.95;;;;;;;;;;5087727;27;99945;-77
2023/07/01 07:59:26;;;;;;;7.03;6.53;;;;;;;;;;5088291;27;98269;-77
2023/07/01 08:01:54;;;;;;;6.85;4.97;;;;;;;;;;5088537;27;99465;-77
2023/07/01 08:04:21;;;;;;;6.40;5.75;;;;;;;;;;5086735;27;100346;-78
2023/07/01 08:06:49;;;;;;;5.43;5.13;;;;;;;;;;5090396;27;98978;-76
2023/07/01 08:09:18;;;;;;;6.43;5.93;;;;;;;;;;5088075;27;100361;-76
2023/07/01 08:11:45;;;;;;;6.15;5.75;;;;;;;;;;5087158;27;99499;-77
2023/07/01 08:14:11;;;;;;;5.45;5.15;;;;;;;;;;5088346;27;99999;-76
2023/07/01 08:16:39;;;;;;;5.25;4.85;;;;;;;;;;5088446;27;100087;-76
2023/07/01 08:19:06;;;;;;;5.60;5.18;;;;;;;;;;5088656;27;98392;-76
2023/07/01 08:21:35;;;;;;;5.22;4.88;;;;;;;;;;5092228;27;99456;-78
2023/07/01 08:24:02;;;;;;;5.05;4.85;;;;;;;;;;5095902;27;99395;-77
2023/07/01 08:26:29;;;;;;;4.93;4.63;;;;;;;;;;5103460;27;98297;-76
2023/07/01 08:28:56;;;;;;;4.50;4.30;;;;;;;;;;5097111;27;98975;-76
2023/07/01 08:31:23;;;;;;;5.15;4.85;;;;;;;;;;5091865;27;98183;-77
2023/07/01 08:33:50;;;;;;;4.65;4.38;;;;;;;;;;5090863;27;99502;-77
2023/07/01 08:36:18;;;;;;;4.45;4.15;;;;;;;;;;5090284;27;98035;-77
2023/07/01 08:38:44;;;;;;;4.40;4.10;;;;;;;;;;5073083;27;98859;-77
2023/07/01 08:41:14;;;;;;;4.20;3.90;;;;;;;;;;5090639;27;99399;-77
2023/07/01 08:43:40;;;;;;;3.55;3.35;;;;;;;;;;5090550;27;98963;-77
2023/07/01 08:46:12;;;;;;;3.88;3.50;;;;;;;;;;5089941;27;98227;-76
2023/07/01 08:48:38;;;;;;;4.05;3.85;;;;;;;;;;5094827;27;99544;-76
2023/07/01 08:51:18;;;;;;;3.45;3.25;;;;;;;;;;5088980;27;98474;-76
2023/07/01 08:53:44;;;;;;;2.85;2.75;;;;;;;;;;5089967;27;99811;-77
2023/07/01 08:56:13;;;;;;;3.03;2.83;;;;;;;;;;5090943;27;99908;-77
2023/07/01 08:58:44;;;;;;;2.63;2.53;;;;;;;;;;5092050;27;98245;-76
2023/07/01 09:01:10;;;;;;;3.13;3.03;;;;;;;;;;5090491;27;99434;-77
2023/07/01 09:03:39;;;;;;;2.70;2.60;;;;;;;;;;5091276;27;99886;-77
2023/07/01 09:06:06;;;;;;;3.30;3.10;;;;;;;;;;5090931;27;98269;-76
2023/07/01 09:08:38;;;;;;;3.30;3.10;;;;;;;;;;5089844;27;98526;-77
2023/07/01 09:11:05;;;;;;;3.30;3.13;;;;;;;;;;5092776;27;98734;-76
2023/07/01 09:13:32;;;;;;;3.13;2.55;;;;;;;;;;5090263;27;98654;-76
2023/07/01 09:15:59;;;;;;;2.80;2.67;;;;;;;;;;5089870;27;100230;-78
2023/07/01 09:18:31;;;;;;;3.28;3.15;;;;;;;;;;5090269;27;98269;-78
2023/07/01 09:20:58;;;;;;;2.95;2.75;;;;;;;;;;5090734;27;100544;-76
2023/07/01 09:23:26;;;;;;;2.90;2.70;;;;;;;;;;5089786;27;99837;-79
2023/07/01 09:26:08;;;;;;;2.75;2.65;;;;;;;;;;5087348;27;98273;-77
2023/07/01 09:28:35;;;;;;;2.63;2.42;;;;;;;;;;5088795;27;98415;-78
2023/07/01 09:31:03;;;;;;;2.92;2.72;;;;;;;;;;5090410;27;100093;-78
2023/07/01 09:33:30;;;;;;;2.83;2.72;;;;;;;;;;5093102;27;98351;-78
2023/07/01 09:36:02;;;;;;;2.60;2.45;;;;;;;;;;5088674;27;98870;-76
2023/07/01 09:38:29;;;;;;;2.90;2.70;;;;;;;;;;5090740;27;98263;-77
2023/07/01 09:41:16;;;;;;;2.60;2.50;;;;;;;;;;5089925;27;99933;-77
2023/07/01 09:43:43;;;;;;;2.70;2.60;;;;;;;;;;5088602;27;99935;-78
2023/07/01 09:46:10;;;;;;;2.40;2.30;;;;;;;;;;5090589;27;98649;-78
2023/07/01 09:48:37;;;;;;;2.22;2.13;;;;;;;;;;5090744;27;99481;-77
2023/07/01 09:51:04;;;;;;;2.47;2.38;;;;;;;;;;5089228;27;100141;-77
2023/07/01 09:53:32;;;;;;;3.33;3.13;;;;;;;;;;5090619;27;98341;-77
2023/07/01 09:56:06;;;;;;;3.33;2.55;;;;;;;;;;5092702;27;98423;-78
2023/07/01 09:58:33;;;;;;;2.25;2.15;;;;;;;;;;5089592;27;98289;-77
2023/07/01 10:01:00;;;;;;;3.00;2.30;;;;;;;;;;5090542;27;99712;-78
2023/07/01 10:03:27;;;;;;;2.65;2.50;;;;;;;;;;5089560;27;99942;-77
2023/07/01 10:05:54;;;;;;;2.88;2.67;;;;;;;;;;5090234;27;98229;-78
2023/07/01 10:08:21;;;;;;;2.65;2.55;;;;;;;;;;5089359;27;99733;-77
2023/07/01 10:10:59;;;;;;;2.35;2.25;;;;;;;;;;5088905;27;99922;-77
2023/07/01 10:13:27;;;;;;;2.50;2.30;;;;;;;;;;5090188;27;98261;-78
2023/07/01 10:15:53;;;;;;;2.70;2.50;;;;;;;;;;5090077;27;99556;-78
2023/07/01 10:18:21;;;;;;;2.70;2.60;;;;;;;;;;5092599;27;99852;-76
2023/07/01 10:20:53;;;;;;;2.47;2.38;;;;;;;;;;5089392;27;98544;-76
2023/07/01 10:23:19;;;;;;;2.30;2.10;;;;;;;;;;5089734;27;99963;-77
2023/07/01 10:25:46;;;;;;;2.13;2.03;;;;;;;;;;5089585;27;98214;-78
2023/07/01 10:28:13;;;;;;;2.00;1.90;;;;;;;;;;5089922;27;99294;-78
2023/07/01 10:30:46;;;;;;;6.20;1.90;;;;;;;;;;5088904;27;99026;-77
2023/07/01 10:33:27;;;;;;;1.60;1.50;;;;;;;;;;5088286;27;98067;-79
2023/07/01 10:36:01;;;;;;;1.50;1.50;;;;;;;;;;5089646;27;99434;-76
2023/07/01 10:38:30;;;;;;;1.50;1.50;;;;;;;;;;5092431;27;100121;-77
2023/07/01 10:40:57;;;;;;;1.55;1.45;;;;;;;;;;5089127;27;99501;-79
2023/07/01 10:43:30;;;;;;;1.42;1.42;;;;;;;;;;5089359;27;100143;-77
2023/07/01 10:46:15;;;;;;;1.50;1.40;;;;;;;;;;5087662;27;98667;-77
2023/07/01 10:49:02;;;;;;;1.80;1.60;;;;;;;;;;5086100;27;98784;-78
2023/07/01 10:51:31;;;;;;;1.40;1.40;;;;;;;;;;5071726;27;98956;-78
2023/07/01 10:53:59;;;;;;;1.73;1.63;;;;;;;;;;5088513;27;98230;-77
2023/07/01 10:56:27;;;;;;;1.95;1.85;;;;;;;;;;5089580;27;99551;-78
2023/07/01 10:59:12;;;;;;;2.25;2.00;;;;;;;;;;5088569;27;100179;-76
2023/07/01 11:01:42;;;;;;;1.85;1.75;;;;;;;;;;5091860;27;98615;-77
2023/07/01 11:04:09;;;;;;;2.42;1.98;;;;;;;;;;5087795;27;99044;-76
2023/07/01 11:07:05;;;;;;;2.30;2.20;;;;;;;;;;5088671;27;98491;-76
2023/07/01 11:09:34;;;;;;;2.92;2.58;;;;;;;;;;5066744;27;99538;-79
2023/07/01 11:12:02;;;;;;;2.70;2.58;;;;;;;;;;5088885;27;100231;-77
2023/07/01 11:14:30;;;;;;;5.38;2.65;;;;;;;;;;5087237;27;98312;-78
2023/07/01 11:17:07;;;;;;;3.20;2.60;;;;;;;;;;5089070;27;99761;-77
2023/07/01 11:19:34;;;;;;;2.80;2.70;;;;;;;;;;5088841;27;98907;-76
2023/07/01 11:22:01;;;;;;;5.57;3.00;;;;;;;;;;5091189;27;98243;-77
2023/07/01 11:24:29;;;;;;;3.30;3.00;;;;;;;;;;5095277;27;98686;-77
2023/07/01 11:27:00;;;;;;;4.20;3.05;;;;;;;;;;5093314;27;98877;-77
2023/07/01 11:29:26;;;;;;;4.80;2.85;;;;;;;;;;5092756;27;98501;-78
2023/07/01 11:31:59;;;;;;;4.88;2.75;;;;;;;;;;5094993;27;98913;-79
2023/07/01 11:34:27;;;;;;;2.83;2.63;;;;;;;;;;5093324;27;98234;-77
2023/07/01 11:36:54;;;;;;;3.53;2.85;;;;;;;;;;5093643;27;99776;-77
2023/07/01 11:39:21;;;;;;;3.40;3.10;;;;;;;;;;5090250;27;99932;-77
2023/07/01 11:41:51;;;;;;;3.30;3.00;;;;;;;;;;5090354;27;98260;-77
2023/07/01 11:44:22;;;;;;;5.57;2.47;;;;;;;;;;5109303;27;99331;-76
2023/07/01 11:46:49;;;;;;;4.90;2.97;;;;;;;;;;5111521;27;99028;-77
2023/07/01 11:49:23;;;;;;;3.17;2.55;;;;;;;;;;5103821;27;98564;-78
2023/07/01 11:51:55;;;;;;;4.40;2.42;;;;;;;;;;5102281;27;99093;-77
2023/07/01 11:54:24;;;;;;;3.15;2.63;;;;;;;;;;5083814;27;98420;-77
2023/07/01 11:57:06;;;;;;;5.20;2.72;;;;;;;;;;5098582;27;97991;-77
2023/07/01 11:59:33;;;;;;;4.65;2.53;;;;;;;;;;5089712;27;100178;-77
2023/07/01 12:02:00;;;;;;;3.00;2.80;;;;;;;;;;5088985;27;99703;-78
2023/07/01 12:04:28;;;;;;;3.80;2.65;;;;;;;;;;5087978;27;99481;-78
2023/07/01 12:07:08;;;;;;;3.10;2.53;;;;;;;;;;5088442;27;100250;-77
2023/07/01 12:09:35;;;;;;;3.15;2.85;;;;;;;;;;5092104;27;98407;-77
2023/07/01 12:12:01;;;;;;;4.65;2.42;;;;;;;;;;5087645;27;99907;-77
2023/07/01 12:14:29;;;;;;;6.15;2.50;;;;;;;;;;5087726;27;98324;-76
2023/07/01 12:16:55;;;;;;;2.13;2.00;;;;;;;;;;5087481;27;99554;-77
2023/07/01 12:19:23;;;;;;;6.43;2.42;;;;;;;;;;5088364;27;99807;-76
2023/07/01 12:21:50;;;;;;;3.00;2.65;;;;;;;;;;5088129;27;98355;-78
2023/07/01 12:24:21;;;;;;;8.20;2.42;;;;;;;;;;5087481;27;99663;-78
2023/07/01 12:26:48;;;;;;;2.53;2.33;;;;;;;;;;5088329;27;99898;-78
2023/07/01 12:29:15;;;;;;;4.45;2.40;;;;;;;;;;5088109;27;99480;-78
2023/07/01 12:31:41;;;;;;;3.28;2.50;;;;;;;;;;5090919;27;99384;-76
2023/07/01 12:34:08;;;;;;;2.55;2.35;;;;;;;;;;5087892;27;98260;-78
2023/07/01 12:36:37;;;;;;;4.95;2.80;;;;;;;;;;5088496;27;99763;-78
2023/07/01 12:39:05;;;;;;;3.13;2.67;;;;;;;;;;5085153;27;99113;-78
2023/07/01 12:41:34;;;;;;;2.92;2.20;;;;;;;;;;5087053;27;98376;-76
2023/07/01 12:44:01;;;;;;;3.90;2.70;;;;;;;;;;5086241;27;100050;-77
2023/07/01 12:46:27;;;;;;;3.00;2.80;;;;;;;;;;5087590;27;99845;-78
2023/07/01 12:48:55;;;;;;;2.67;2.47;;;;;;;;;;5070036;27;98939;-77
2023/07/01 12:51:21;;;;;;;5.00;2.58;;;;;;;;;;5091368;27;98471;-78
2023/07/01 12:53:49;;;;;;;2.92;2.60;;;;;;;;;;5087342;27;98283;-77
2023/07/01 12:56:22;;;;;;;3.30;2.42;;;;;;;;;;5087775;27;98613;-77
2023/07/01 12:58:48;;;;;;;6.43;2.72;;;;;;;;;;5087736;27;99930;-78
2023/07/01 13:01:14;;;;;;;3.10;2.22;;;;;;;;;;5087078;27;98240;-77
2023/07/01 13:03:42;;;;;;;3.65;2.40;;;;;;;;;;5086278;27;98553;-77
2023/07/01 13:06:29;;;;;;;3.20;2.47;;;;;;;;;;5086284;27;99978;-77
2023/07/01 13:08:59;;;;;;;4.30;2.78;;;;;;;;;;5088909;27;98222;-78
2023/07/01 13:11:32;;;;;;;1.92;1.65;;;;;;;;;;5072934;27;99563;-79
2023/07/01 13:13:59;;;;;;;3.17;2.30;;;;;;;;;;5092281;27;98972;-79
2023/07/01 13:16:28;;;;;;;5.03;2.60;;;;;;;;;;5091665;27;99343;-77
2023/07/01 13:19:01;;;;;;;2.10;2.00;;;;;;;;;;5072223;27;99978;-78
2023/07/01 13:21:27;;;;;;;2.25;2.10;;;;;;;;;;5090417;27;98505;-77
2023/07/01 13:23:55;;;;;;;4.50;2.80;;;;;;;;;;5090719;27;99346;-77
2023/07/01 13:26:27;;;;;;;6.13;2.10;;;;;;;;;;5090893;27;100011;-77
2023/07/01 13:28:55;;;;;;;2.90;2.20;;;;;;;;;;5089408;27;98272;-79
2023/07/01 13:31:24;;;;;;;5.35;1.88;;;;;;;;;;5092302;27;98471;-78
2023/07/01 13:33:54;;;;;;;4.35;1.70;;;;;;;;;;5091132;27;101653;-77
2023/07/01 13:36:21;;;;;;;4.63;1.50;;;;;;;;;;5093062;27;98155;-76
2023/07/01 13:38:49;;;;;;;2.15;1.77;;;;;;;;;;5090107;27;99290;-79
2023/07/01 13:41:16;;;;;;;5.85;1.77;;;;;;;;;;5089023;27;98408;-78
2023/07/01 13:43:43;;;;;;;2.67;1.50;;;;;;;;;;5090769;27;99386;-78
2023/07/01 13:46:10;;;;;;;3.35;1.40;;;;;;;;;;5090673;27;99698;-78
2023/07/01 13:48:37;;;;;;;5.15;2.13;;;;;;;;;;5090146;27;98499;-78
2023/07/01 13:51:04;;;;;;;2.38;1.88;;;;;;;;;;5089449;27;98891;-78
2023/07/01 13:53:32;;;;;;;1.92;1.65;;;;;;;;;;5089691;27;100184;-78
2023/07/01 13:56:01;;;;;;;1.80;1.60;;;;;;;;;;5088756;27;98237;-79
2023/07/01 13:58:28;;;;;;;2.30;1.50;;;;;;;;;;5092948;27;98494;-77
2023/07/01 14:00:55;;;;;;;1.65;1.25;;;;;;;;;;5090605;27;99181;-77
2023/07/01 14:03:23;;;;;;;1.00;1.00;;;;;;;;;;5071481;27;99391;-78
2023/07/01 14:05:50;;;;;;;2.25;1.70;;;;;;;;;;5090227;27;99981;-77
2023/07/01 14:08:18;;;;;;;4.60;1.48;;;;;;;;;;5090057;27;98303;-78
2023/07/01 14:10:44;;;;;;;1.80;1.70;;;;;;;;;;5089356;27;98693;-78
2023/07/01 14:13:12;;;;;;;2.03;1.85;;;;;;;;;;5088897;27;99064;-79
2023/07/01 14:15:40;;;;;;;3.47;1.40;;;;;;;;;;5089673;27;98214;-79
2023/07/01 14:21:06;;;;;;;1.55;1.48;;;;;;;;;;5093015;27;100030;-78
2023/07/01 14:23:37;;;;;;;3.80;1.98;;;;;;;;;;5089641;27;99696;-77
2023/07/01 14:26:09;;;;;;;2.63;1.70;;;;;;;;;;5089619;27;99995;-79
2023/07/01 14:28:36;;;;;;;1.95;1.40;;;;;;;;;;5089959;27;98241;-79
2023/07/01 14:31:03;;;;;;;1.75;1.45;;;;;;;;;;5089687;27;98492;-79
2023/07/01 14:33:34;;;;;;;2.85;1.48;;;;;;;;;;5090845;27;99874;-78
2023/07/01 14:36:01;;;;;;;3.40;1.63;;;;;;;;;;5091142;27;98222;-77
2023/07/01 14:38:35;;;;;;;3.67;2.20;;;;;;;;;;5093909;27;99620;-79
2023/07/01 14:41:01;;;;;;;5.68;1.35;;;;;;;;;;5095534;27;99036;-78
2023/07/01 14:43:28;;;;;;;1.20;1.10;;;;;;;;;;5095597;27;98157;-78
2023/07/01 14:45:54;;;;;;;1.38;1.27;;;;;;;;;;5088804;27;99880;-78
2023/07/01 14:48:23;;;;;;;3.60;1.23;;;;;;;;;;5089765;27;98308;-80
2023/07/01 14:50:50;;;;;;;3.60;1.30;;;;;;;;;;5088529;27;98875;-79